< < Back
Terminal Aerodrome Forecast


Current Version              Previous Versions:   1  2  3  4  5  6  7  8  9  

Terminal Aerodrome Forecast

988
FTUS42 KTAE 202300
TAFVLD
TAF
KVLD 202336Z 2100/2124 00000KT P6SM BKN250
      TEMPO 2110/2112 5SM BR
     FM211600 35004KT P6SM SCT250=

Latest METAR

655
SAUS70 KWBC 210500 RRE
MTRVLD
METAR KVLD 210453Z AUTO 00000KT 8SM CLR 16/14 A2998 RMK AO2 SLP159
T01610139 402830106


USA.gov is the U.S. government's official web portal to all federal, state and local government web resources and services.